Terminal Aerodrome Forecast
Issued by NWS

Home | Current Version | Previous Version | Text Only | Print | Product List | Glossary On
Versions: 1 2 3 4 5 6 7 8 9 10 11 12 13 14 15 16 17 18 19 20 21 22 23
094
FTUS41 KPBZ 022326
TAFLBE
TAF
KLBE 022326Z 0300/0324 35005KT P6SM VCSH BKN035
     FM030300 VRB03KT 6SM -SHRA OVC025
     FM030700 00000KT 3SM BR VCSH OVC010
     FM031700 VRB04KT P6SM BKN035=

USA.gov is the U.S. government's official web portal to all federal, state and local government web resources and services.